Bolton Landing, NY (12814)

2:27 AM EST on December 28, 2014 (GMT -0500)
Bolton / Lake George | Change Station
CLOSE
Current Station
Personal Weather Station
Location: Bolton Landing, NY
Elevation: 400 ft
Nearby Weather Stations

Elev 400 ft 43.59 °N, 73.64 °W | Updated 13 minutes ago

Rain
Rain
41.1 °F
Feels Like 41 °F
N
1.0
Wind Variable Wind from WSW
Gusts 1.0 mph

Today
High -- | Low -- °F
--% Chance of Precip.
Yesterday
High -- | Low -- °F
Precip. -- in
7:27 AM 4:25 PM
Waxing Crescent, 45% visible
Pressure 29.88 in
Visibility 7.0 miles
Clouds Scattered Clouds 5500 ft
Overcast 7000 ft
Windchill 41 °F
Dew Point 37 °F
Humidity 86%
Rainfall 0.00 in
Snow Depth Not available.
UV 0 out of 12
Pollen .10 out of 12
Air Quality Not available.
Flu Activity Not available.
METAR KGFL 280653Z AUTO 20005KT 7SM -RA SCT055 OVC070 06/02 A2986 RMK AO2 RAB0558 SLP118 P0000 T00610022

More Conditions Fewer Conditions

Pressure 29.88 in
Visibility 7.0 miles
Clouds Scattered Clouds 5500 ft
Overcast 7000 ft
Windchill 41 °F
Dew Point 37 °F
Humidity 86%
Rainfall 0.00 in
Snow Depth Not available.
UV 0 out of 12
Pollen .10 out of 12
Air Quality Not available.
Flu Activity Not available.
METAR KGFL 280653Z AUTO 20005KT 7SM -RA SCT055 OVC070 06/02 A2986 RMK AO2 RAB0558 SLP118 P0000 T00610022

More Conditions Fewer Conditions

10-Day Weather Forecast

Almanac

Astronomy

Dec. 28, 2014 Rise Set
Actual Time
Civil Twilight
Nautical Twilight
Astronomical Twilight
Moon
Length of Visible Light
Length of Day
Tomorrow will be .
, % of the Moon is Illuminated

Today's Extremes

State Highs State Lows

Community

WunderPhotos

Upload Photos

1,781,210 photos uploaded!

WunderBlogs® & News

Nearby

Air Quality

  Air Quality AQ Index Pollutant
Not available.

Snow Depth

Station Depth Elevation

Earthquake Activity

City Distance Mag. Time & Date
Minimum magnitude displayed is 2.5.

Coastal Water Temperatures

Place Temperature

Nearby Weather Stations